Decoded Metar for KNEW (NEW ORLEANS/LAKE in LA, USA) (IATA:NEW) | Meteo·Mobile Aviation Weather
aviador You're here:

KNEW Decoded Metar

NEW ORLEANS/LAKE in LA, USA
Report Time2019-04-23 15:53:00
UTC Time2019-04-23 16:47:21
Flight Rules vfr VFR
Wind110° at 04 kt
W.Decomp.*RWY 09: 3.8 kt HW 1.2 kt RCW
RWY 18: 1.2 kt HW 3.8 kt LCW
Visibility9999 m
Phenomena:N/A
Clouds:N/A
Expected CloudBase > 3,600 ft AGL from Temp-Dew spread
CeilingNone
Temp23°C (ISA +8)
Dew Point14°C (57% RH)
AAT22.8°C
QNH1021 hPa
Density Alt889 ft
Elevation10 ft
Report Wrong Elevation
Raw Report
KNEW 231553Z 11004KT 10SM CLR 23/14 A3016 RMK AO2 SLP207
T02280144=

Extra information for KNEW:More info

Metar Taf Metar & Taf Last 4 Metars F.Rules Stats Wind Profile Meteogram Temp Stats Airport Information Weather charts Add Link Nearby VenuesMetar ALERT Operation Metar Decoded Social comments

AIRNAV info for KNEW